sensor_id;sensor_type;location;lat;lon;timestamp;temperature;humidity
49489;SHT31;35382;51.484;11.476;2023-03-31T00:00:41;7.22;93.83
49489;SHT31;35382;51.484;11.476;2023-03-31T00:02:22;7.15;93.61
49489;SHT31;35382;51.484;11.476;2023-03-31T00:04:03;7.09;93.98
49489;SHT31;35382;51.484;11.476;2023-03-31T00:05:44;7.02;94.24
49489;SHT31;35382;51.484;11.476;2023-03-31T00:07:27;7.03;94.55
49489;SHT31;35382;51.484;11.476;2023-03-31T00:09:13;6.99;94.31
49489;SHT31;35382;51.484;11.476;2023-03-31T00:10:58;6.89;94.61
49489;SHT31;35382;51.484;11.476;2023-03-31T00:12:40;6.79;94.62
49489;SHT31;35382;51.484;11.476;2023-03-31T00:14:21;6.65;94.69
49489;SHT31;35382;51.484;11.476;2023-03-31T00:16:06;6.81;94.78
49489;SHT31;35382;51.484;11.476;2023-03-31T00:17:47;6.61;94.66
49489;SHT31;35382;51.484;11.476;2023-03-31T00:19:28;6.61;95.23
49489;SHT31;35382;51.484;11.476;2023-03-31T00:21:13;6.45;95.11
49489;SHT31;35382;51.484;11.476;2023-03-31T00:23:04;6.42;94.97
49489;SHT31;35382;51.484;11.476;2023-03-31T00:24:50;6.35;94.75
49489;SHT31;35382;51.484;11.476;2023-03-31T00:26:32;6.21;94.42
49489;SHT31;35382;51.484;11.476;2023-03-31T00:28:13;6.31;94.04
49489;SHT31;35382;51.484;11.476;2023-03-31T00:29:54;6.20;94.38
49489;SHT31;35382;51.484;11.476;2023-03-31T00:31:35;5.94;93.97
49489;SHT31;35382;51.484;11.476;2023-03-31T00:33:18;5.83;94.38
49489;SHT31;35382;51.484;11.476;2023-03-31T00:35:02;5.70;94.49
49489;SHT31;35382;51.484;11.476;2023-03-31T00:36:44;5.55;95.21
49489;SHT31;35382;51.484;11.476;2023-03-31T00:38:28;5.55;95.81
49489;SHT31;35382;51.484;11.476;2023-03-31T00:40:10;5.49;96.11
49489;SHT31;35382;51.484;11.476;2023-03-31T00:41:52;5.53;96.35
49489;SHT31;35382;51.484;11.476;2023-03-31T00:43:35;5.69;96.92
49489;SHT31;35382;51.484;11.476;2023-03-31T00:45:30;5.76;97.15
49489;SHT31;35382;51.484;11.476;2023-03-31T00:47:18;6.14;97.54
49489;SHT31;35382;51.484;11.476;2023-03-31T00:49:01;6.25;97.65
49489;SHT31;35382;51.484;11.476;2023-03-31T00:50:53;6.37;97.46
49489;SHT31;35382;51.484;11.476;2023-03-31T00:52:35;6.51;97.26
49489;SHT31;35382;51.484;11.476;2023-03-31T00:54:17;6.63;97.00
49489;SHT31;35382;51.484;11.476;2023-03-31T00:56:06;6.69;96.83
49489;SHT31;35382;51.484;11.476;2023-03-31T00:57:50;6.85;96.58
49489;SHT31;35382;51.484;11.476;2023-03-31T00:59:37;7.03;96.30
49489;SHT31;35382;51.484;11.476;2023-03-31T01:01:20;7.13;96.06
49489;SHT31;35382;51.484;11.476;2023-03-31T01:03:05;7.22;95.72
49489;SHT31;35382;51.484;11.476;2023-03-31T01:04:53;7.37;95.43
49489;SHT31;35382;51.484;11.476;2023-03-31T01:06:37;7.53;95.40
49489;SHT31;35382;51.484;11.476;2023-03-31T01:08:30;7.70;94.79
49489;SHT31;35382;51.484;11.476;2023-03-31T01:10:12;7.83;94.54
49489;SHT31;35382;51.484;11.476;2023-03-31T01:11:53;7.84;94.07
49489;SHT31;35382;51.484;11.476;2023-03-31T01:13:37;7.93;93.54
49489;SHT31;35382;51.484;11.476;2023-03-31T01:15:19;7.97;93.11
49489;SHT31;35382;51.484;11.476;2023-03-31T01:17:00;8.01;92.93
49489;SHT31;35382;51.484;11.476;2023-03-31T01:18:42;8.00;93.16
49489;SHT31;35382;51.484;11.476;2023-03-31T01:20:36;7.97;92.95
49489;SHT31;35382;51.484;11.476;2023-03-31T01:24:44;7.86;93.05
49489;SHT31;35382;51.484;11.476;2023-03-31T01:27:10;7.83;92.86
49489;SHT31;35382;51.484;11.476;2023-03-31T01:37:15;7.40;93.35
49489;SHT31;35382;51.484;11.476;2023-03-31T01:47:02;7.49;93.01
49489;SHT31;35382;51.484;11.476;2023-03-31T01:48:50;7.56;92.78
49489;SHT31;35382;51.484;11.476;2023-03-31T01:52:59;7.69;92.19
49489;SHT31;35382;51.484;11.476;2023-03-31T01:54:49;7.59;92.45
49489;SHT31;35382;51.484;11.476;2023-03-31T01:56:40;7.56;92.51
49489;SHT31;35382;51.484;11.476;2023-03-31T01:58:47;7.58;92.32
49489;SHT31;35382;51.484;11.476;2023-03-31T02:00:32;7.79;92.06
49489;SHT31;35382;51.484;11.476;2023-03-31T02:02:21;7.91;91.19
49489;SHT31;35382;51.484;11.476;2023-03-31T02:04:19;7.84;91.97
49489;SHT31;35382;51.484;11.476;2023-03-31T02:06:07;7.87;91.78
49489;SHT31;35382;51.484;11.476;2023-03-31T02:07:54;7.97;91.47
49489;SHT31;35382;51.484;11.476;2023-03-31T02:09:39;8.14;90.72
49489;SHT31;35382;51.484;11.476;2023-03-31T02:11:23;7.81;90.98
49489;SHT31;35382;51.484;11.476;2023-03-31T02:13:05;7.50;91.71
49489;SHT31;35382;51.484;11.476;2023-03-31T02:14:49;7.37;92.44
49489;SHT31;35382;51.484;11.476;2023-03-31T02:16:34;7.30;92.73
49489;SHT31;35382;51.484;11.476;2023-03-31T02:18:22;7.16;93.79
49489;SHT31;35382;51.484;11.476;2023-03-31T02:20:09;7.16;93.67
49489;SHT31;35382;51.484;11.476;2023-03-31T02:21:52;7.25;93.62
49489;SHT31;35382;51.484;11.476;2023-03-31T02:23:36;7.23;93.37
49489;SHT31;35382;51.484;11.476;2023-03-31T02:25:21;7.16;93.36
49489;SHT31;35382;51.484;11.476;2023-03-31T02:27:24;7.16;93.44
49489;SHT31;35382;51.484;11.476;2023-03-31T02:29:07;7.15;93.58
49489;SHT31;35382;51.484;11.476;2023-03-31T02:32:43;7.15;93.62
49489;SHT31;35382;51.484;11.476;2023-03-31T02:34:24;7.02;93.70
49489;SHT31;35382;51.484;11.476;2023-03-31T02:36:05;6.96;93.72
49489;SHT31;35382;51.484;11.476;2023-03-31T02:37:47;6.89;94.10
49489;SHT31;35382;51.484;11.476;2023-03-31T02:39:33;6.54;94.11
49489;SHT31;35382;51.484;11.476;2023-03-31T02:41:14;6.38;94.44
49489;SHT31;35382;51.484;11.476;2023-03-31T02:42:55;6.31;95.04
49489;SHT31;35382;51.484;11.476;2023-03-31T02:44:38;6.23;95.20
49489;SHT31;35382;51.484;11.476;2023-03-31T02:46:19;6.20;95.39
49489;SHT31;35382;51.484;11.476;2023-03-31T02:48:00;6.16;95.64
49489;SHT31;35382;51.484;11.476;2023-03-31T02:49:45;6.10;95.57
49489;SHT31;35382;51.484;11.476;2023-03-31T02:51:41;5.87;94.89
49489;SHT31;35382;51.484;11.476;2023-03-31T03:02:17;5.70;95.60
49489;SHT31;35382;51.484;11.476;2023-03-31T03:04:32;6.06;95.94
49489;SHT31;35382;51.484;11.476;2023-03-31T03:06:59;6.14;95.86
49489;SHT31;35382;51.484;11.476;2023-03-31T03:16:49;7.11;95.90
49489;SHT31;35382;51.484;11.476;2023-03-31T03:18:33;7.25;95.51
49489;SHT31;35382;51.484;11.476;2023-03-31T03:20:14;7.22;95.40
49489;SHT31;35382;51.484;11.476;2023-03-31T03:21:56;7.12;94.81
49489;SHT31;35382;51.484;11.476;2023-03-31T03:23:37;7.18;94.91
49489;SHT31;35382;51.484;11.476;2023-03-31T03:25:18;7.18;95.02
49489;SHT31;35382;51.484;11.476;2023-03-31T03:27:04;7.11;94.99
49489;SHT31;35382;51.484;11.476;2023-03-31T03:28:44;7.05;94.85
49489;SHT31;35382;51.484;11.476;2023-03-31T03:30:25;7.08;94.92
49489;SHT31;35382;51.484;11.476;2023-03-31T03:32:08;7.19;94.93
49489;SHT31;35382;51.484;11.476;2023-03-31T03:33:49;7.25;94.89
49489;SHT31;35382;51.484;11.476;2023-03-31T03:35:33;7.32;94.95
49489;SHT31;35382;51.484;11.476;2023-03-31T03:37:14;7.39;94.76
49489;SHT31;35382;51.484;11.476;2023-03-31T03:38:55;7.53;94.32
49489;SHT31;35382;51.484;11.476;2023-03-31T03:40:36;7.59;94.13
49489;SHT31;35382;51.484;11.476;2023-03-31T03:42:17;7.60;94.12
49489;SHT31;35382;51.484;11.476;2023-03-31T03:43:59;7.70;93.94
49489;SHT31;35382;51.484;11.476;2023-03-31T03:45:40;7.73;93.71
49489;SHT31;35382;51.484;11.476;2023-03-31T03:47:21;7.74;93.51
49489;SHT31;35382;51.484;11.476;2023-03-31T03:49:02;7.83;93.08
49489;SHT31;35382;51.484;11.476;2023-03-31T03:50:46;7.81;92.93
49489;SHT31;35382;51.484;11.476;2023-03-31T03:52:27;7.93;92.56
49489;SHT31;35382;51.484;11.476;2023-03-31T03:54:08;7.98;92.39
49489;SHT31;35382;51.484;11.476;2023-03-31T03:55:48;8.10;91.84
49489;SHT31;35382;51.484;11.476;2023-03-31T03:57:29;7.95;92.34
49489;SHT31;35382;51.484;11.476;2023-03-31T03:59:10;7.97;92.55
49489;SHT31;35382;51.484;11.476;2023-03-31T04:00:51;7.91;92.76
49489;SHT31;35382;51.484;11.476;2023-03-31T04:02:32;7.97;92.58
49489;SHT31;35382;51.484;11.476;2023-03-31T04:04:13;7.98;92.58
49489;SHT31;35382;51.484;11.476;2023-03-31T04:05:54;7.94;92.68
49489;SHT31;35382;51.484;11.476;2023-03-31T04:07:35;7.98;92.83
49489;SHT31;35382;51.484;11.476;2023-03-31T04:09:16;7.95;92.99
49489;SHT31;35382;51.484;11.476;2023-03-31T04:10:57;8.10;92.65
49489;SHT31;35382;51.484;11.476;2023-03-31T04:12:39;8.13;92.23
49489;SHT31;35382;51.484;11.476;2023-03-31T04:14:20;7.97;92.62
49489;SHT31;35382;51.484;11.476;2023-03-31T04:16:01;7.94;92.76
49489;SHT31;35382;51.484;11.476;2023-03-31T04:17:42;8.04;92.86
49489;SHT31;35382;51.484;11.476;2023-03-31T04:19:28;8.05;92.66
49489;SHT31;35382;51.484;11.476;2023-03-31T04:21:11;8.05;92.86
49489;SHT31;35382;51.484;11.476;2023-03-31T04:22:56;8.14;92.70
49489;SHT31;35382;51.484;11.476;2023-03-31T04:24:37;8.17;92.55
49489;SHT31;35382;51.484;11.476;2023-03-31T04:26:18;8.21;92.48
49489;SHT31;35382;51.484;11.476;2023-03-31T04:28:06;8.18;92.47
49489;SHT31;35382;51.484;11.476;2023-03-31T04:29:50;8.24;92.22
49489;SHT31;35382;51.484;11.476;2023-03-31T04:31:34;8.20;92.02
49489;SHT31;35382;51.484;11.476;2023-03-31T04:33:18;8.23;91.99
49489;SHT31;35382;51.484;11.476;2023-03-31T04:34:59;8.24;91.88
49489;SHT31;35382;51.484;11.476;2023-03-31T04:36:44;8.31;91.52
49489;SHT31;35382;51.484;11.476;2023-03-31T04:38:28;8.31;91.50
49489;SHT31;35382;51.484;11.476;2023-03-31T04:40:14;8.34;91.49
49489;SHT31;35382;51.484;11.476;2023-03-31T04:41:56;8.44;91.29
49489;SHT31;35382;51.484;11.476;2023-03-31T04:43:38;8.62;90.49
49489;SHT31;35382;51.484;11.476;2023-03-31T04:45:18;8.55;90.29
49489;SHT31;35382;51.484;11.476;2023-03-31T04:46:59;8.45;90.55
49489;SHT31;35382;51.484;11.476;2023-03-31T04:48:42;8.44;90.71
49489;SHT31;35382;51.484;11.476;2023-03-31T04:50:23;8.34;91.20
49489;SHT31;35382;51.484;11.476;2023-03-31T04:52:04;8.36;91.01
49489;SHT31;35382;51.484;11.476;2023-03-31T04:53:45;8.28;91.36
49489;SHT31;35382;51.484;11.476;2023-03-31T04:55:26;8.21;91.73
49489;SHT31;35382;51.484;11.476;2023-03-31T04:57:07;8.11;92.15
49489;SHT31;35382;51.484;11.476;2023-03-31T04:58:48;8.07;92.32
49489;SHT31;35382;51.484;11.476;2023-03-31T05:00:32;8.10;92.34
49489;SHT31;35382;51.484;11.476;2023-03-31T05:02:13;8.11;92.45
49489;SHT31;35382;51.484;11.476;2023-03-31T05:04:03;8.14;92.26
49489;SHT31;35382;51.484;11.476;2023-03-31T05:05:44;8.18;92.46
49489;SHT31;35382;51.484;11.476;2023-03-31T05:07:32;8.24;92.19
49489;SHT31;35382;51.484;11.476;2023-03-31T05:09:15;8.33;91.89
49489;SHT31;35382;51.484;11.476;2023-03-31T05:10:56;8.44;91.68
49489;SHT31;35382;51.484;11.476;2023-03-31T05:12:38;8.40;91.55
49489;SHT31;35382;51.484;11.476;2023-03-31T05:14:18;8.47;91.64
49489;SHT31;35382;51.484;11.476;2023-03-31T05:16:11;8.47;91.78
49489;SHT31;35382;51.484;11.476;2023-03-31T05:17:54;8.57;91.70
49489;SHT31;35382;51.484;11.476;2023-03-31T05:19:35;8.71;91.12
49489;SHT31;35382;51.484;11.476;2023-03-31T05:21:18;8.85;90.76
49489;SHT31;35382;51.484;11.476;2023-03-31T05:22:59;8.95;90.48
49489;SHT31;35382;51.484;11.476;2023-03-31T05:24:40;9.09;89.91
49489;SHT31;35382;51.484;11.476;2023-03-31T05:26:21;9.26;89.04
49489;SHT31;35382;51.484;11.476;2023-03-31T05:28:04;9.43;88.38
49489;SHT31;35382;51.484;11.476;2023-03-31T05:29:45;9.56;88.59
49489;SHT31;35382;51.484;11.476;2023-03-31T05:31:26;9.60;87.91
49489;SHT31;35382;51.484;11.476;2023-03-31T05:33:07;9.57;87.92
49489;SHT31;35382;51.484;11.476;2023-03-31T05:34:48;9.70;87.69
49489;SHT31;35382;51.484;11.476;2023-03-31T05:36:34;9.56;88.27
49489;SHT31;35382;51.484;11.476;2023-03-31T05:38:15;9.51;88.63
49489;SHT31;35382;51.484;11.476;2023-03-31T05:39:56;9.53;88.79
49489;SHT31;35382;51.484;11.476;2023-03-31T05:41:37;9.40;89.17
49489;SHT31;35382;51.484;11.476;2023-03-31T05:43:18;9.28;89.78
49489;SHT31;35382;51.484;11.476;2023-03-31T05:44:59;9.25;90.15
49489;SHT31;35382;51.484;11.476;2023-03-31T05:46:40;9.23;90.60
49489;SHT31;35382;51.484;11.476;2023-03-31T05:48:22;9.22;90.98
49489;SHT31;35382;51.484;11.476;2023-03-31T05:50:04;9.20;91.01
49489;SHT31;35382;51.484;11.476;2023-03-31T05:51:47;9.14;91.45
49489;SHT31;35382;51.484;11.476;2023-03-31T05:53:28;9.18;91.36
49489;SHT31;35382;51.484;11.476;2023-03-31T05:55:13;9.19;91.07
49489;SHT31;35382;51.484;11.476;2023-03-31T05:56:54;9.19;90.85
49489;SHT31;35382;51.484;11.476;2023-03-31T05:58:35;9.25;90.49
49489;SHT31;35382;51.484;11.476;2023-03-31T06:00:17;9.28;90.44
49489;SHT31;35382;51.484;11.476;2023-03-31T06:01:58;9.14;90.91
49489;SHT31;35382;51.484;11.476;2023-03-31T06:03:40;8.99;91.19
49489;SHT31;35382;51.484;11.476;2023-03-31T06:05:21;8.96;90.85
49489;SHT31;35382;51.484;11.476;2023-03-31T06:07:06;9.05;90.76
49489;SHT31;35382;51.484;11.476;2023-03-31T06:08:48;9.14;90.54
49489;SHT31;35382;51.484;11.476;2023-03-31T06:10:29;9.18;90.32
49489;SHT31;35382;51.484;11.476;2023-03-31T06:12:10;9.16;90.43
49489;SHT31;35382;51.484;11.476;2023-03-31T06:13:51;9.15;90.68
49489;SHT31;35382;51.484;11.476;2023-03-31T06:15:32;9.08;90.91
49489;SHT31;35382;51.484;11.476;2023-03-31T06:17:13;9.08;91.12
49489;SHT31;35382;51.484;11.476;2023-03-31T06:18:54;9.16;91.29
49489;SHT31;35382;51.484;11.476;2023-03-31T06:20:36;9.23;91.24
49489;SHT31;35382;51.484;11.476;2023-03-31T06:22:17;9.22;91.39
49489;SHT31;35382;51.484;11.476;2023-03-31T06:23:58;9.26;91.51
49489;SHT31;35382;51.484;11.476;2023-03-31T06:25:40;9.25;91.60
49489;SHT31;35382;51.484;11.476;2023-03-31T06:27:21;9.26;91.57
49489;SHT31;35382;51.484;11.476;2023-03-31T06:29:02;9.30;91.31
49489;SHT31;35382;51.484;11.476;2023-03-31T06:30:43;9.30;91.45
49489;SHT31;35382;51.484;11.476;2023-03-31T06:32:23;9.30;91.71
49489;SHT31;35382;51.484;11.476;2023-03-31T06:34:05;9.29;91.70
49489;SHT31;35382;51.484;11.476;2023-03-31T06:35:46;9.33;91.78
49489;SHT31;35382;51.484;11.476;2023-03-31T06:37:27;9.33;92.05
49489;SHT31;35382;51.484;11.476;2023-03-31T06:39:08;9.35;92.05
49489;SHT31;35382;51.484;11.476;2023-03-31T06:40:49;9.33;91.82
49489;SHT31;35382;51.484;11.476;2023-03-31T06:42:30;9.39;91.78
49489;SHT31;35382;51.484;11.476;2023-03-31T06:44:11;9.43;91.45
49489;SHT31;35382;51.484;11.476;2023-03-31T06:45:53;9.47;91.59
49489;SHT31;35382;51.484;11.476;2023-03-31T06:47:34;9.42;91.41
49489;SHT31;35382;51.484;11.476;2023-03-31T06:49:17;9.53;91.40
49489;SHT31;35382;51.484;11.476;2023-03-31T06:50:59;9.49;90.88
49489;SHT31;35382;51.484;11.476;2023-03-31T06:52:41;9.57;91.28
49489;SHT31;35382;51.484;11.476;2023-03-31T06:54:22;9.64;91.34
49489;SHT31;35382;51.484;11.476;2023-03-31T06:56:03;9.66;91.44
49489;SHT31;35382;51.484;11.476;2023-03-31T06:57:48;9.67;91.28
49489;SHT31;35382;51.484;11.476;2023-03-31T06:59:29;9.72;91.18
49489;SHT31;35382;51.484;11.476;2023-03-31T07:01:10;9.70;91.00
49489;SHT31;35382;51.484;11.476;2023-03-31T07:02:52;9.79;90.96
49489;SHT31;35382;51.484;11.476;2023-03-31T07:04:35;9.87;90.80
49489;SHT31;35382;51.484;11.476;2023-03-31T07:06:16;9.89;90.60
49489;SHT31;35382;51.484;11.476;2023-03-31T07:07:58;10.00;90.49
49489;SHT31;35382;51.484;11.476;2023-03-31T07:09:39;9.98;90.50
49489;SHT31;35382;51.484;11.476;2023-03-31T07:11:20;10.06;91.08
49489;SHT31;35382;51.484;11.476;2023-03-31T07:13:01;10.07;90.56
49489;SHT31;35382;51.484;11.476;2023-03-31T07:14:42;10.04;91.05
49489;SHT31;35382;51.484;11.476;2023-03-31T07:16:23;9.96;91.52
49489;SHT31;35382;51.484;11.476;2023-03-31T07:18:04;9.91;90.71
49489;SHT31;35382;51.484;11.476;2023-03-31T07:19:45;9.93;90.65
49489;SHT31;35382;51.484;11.476;2023-03-31T07:21:27;9.87;91.05
49489;SHT31;35382;51.484;11.476;2023-03-31T07:23:08;9.82;91.24
49489;SHT31;35382;51.484;11.476;2023-03-31T07:24:49;9.77;91.27
49489;SHT31;35382;51.484;11.476;2023-03-31T07:26:30;9.77;91.86
49489;SHT31;35382;51.484;11.476;2023-03-31T07:28:14;9.77;91.40
49489;SHT31;35382;51.484;11.476;2023-03-31T07:29:55;9.83;91.67
49489;SHT31;35382;51.484;11.476;2023-03-31T07:31:36;9.86;91.78
49489;SHT31;35382;51.484;11.476;2023-03-31T07:33:17;9.89;91.58
49489;SHT31;35382;51.484;11.476;2023-03-31T07:34:58;9.96;90.84
49489;SHT31;35382;51.484;11.476;2023-03-31T07:36:39;9.98;90.99
49489;SHT31;35382;51.484;11.476;2023-03-31T07:38:20;10.01;90.89
49489;SHT31;35382;51.484;11.476;2023-03-31T07:40:02;10.03;90.75
49489;SHT31;35382;51.484;11.476;2023-03-31T07:41:45;9.98;90.28
49489;SHT31;35382;51.484;11.476;2023-03-31T07:43:26;9.94;90.81
49489;SHT31;35382;51.484;11.476;2023-03-31T07:45:07;9.93;90.73
49489;SHT31;35382;51.484;11.476;2023-03-31T07:46:49;9.94;90.65
49489;SHT31;35382;51.484;11.476;2023-03-31T07:48:30;9.97;90.76
49489;SHT31;35382;51.484;11.476;2023-03-31T07:50:11;9.91;91.02
49489;SHT31;35382;51.484;11.476;2023-03-31T07:51:52;9.96;90.88
49489;SHT31;35382;51.484;11.476;2023-03-31T07:53:33;9.94;90.96
49489;SHT31;35382;51.484;11.476;2023-03-31T07:55:14;9.94;90.98
49489;SHT31;35382;51.484;11.476;2023-03-31T07:56:56;9.98;90.90
49489;SHT31;35382;51.484;11.476;2023-03-31T07:58:42;10.08;90.94
49489;SHT31;35382;51.484;11.476;2023-03-31T08:00:23;10.07;90.84
49489;SHT31;35382;51.484;11.476;2023-03-31T08:02:04;10.03;90.74
49489;SHT31;35382;51.484;11.476;2023-03-31T08:03:46;10.00;91.48
49489;SHT31;35382;51.484;11.476;2023-03-31T08:05:27;9.86;91.45
49489;SHT31;35382;51.484;11.476;2023-03-31T08:07:09;9.79;91.21
49489;SHT31;35382;51.484;11.476;2023-03-31T08:08:50;9.80;91.73
49489;SHT31;35382;51.484;11.476;2023-03-31T08:10:31;9.80;89.74
49489;SHT31;35382;51.484;11.476;2023-03-31T08:12:13;9.82;90.10
49489;SHT31;35382;51.484;11.476;2023-03-31T08:13:56;9.86;90.16
49489;SHT31;35382;51.484;11.476;2023-03-31T08:15:37;9.86;90.12
49489;SHT31;35382;51.484;11.476;2023-03-31T08:17:17;9.89;89.86
49489;SHT31;35382;51.484;11.476;2023-03-31T08:18:59;9.93;90.33
49489;SHT31;35382;51.484;11.476;2023-03-31T08:20:39;10.04;90.58
49489;SHT31;35382;51.484;11.476;2023-03-31T08:22:20;10.10;89.46
49489;SHT31;35382;51.484;11.476;2023-03-31T08:24:03;10.14;89.97
49489;SHT31;35382;51.484;11.476;2023-03-31T08:25:45;10.14;89.92
49489;SHT31;35382;51.484;11.476;2023-03-31T08:27:27;10.11;89.17
49489;SHT31;35382;51.484;11.476;2023-03-31T08:29:08;10.20;89.17
49489;SHT31;35382;51.484;11.476;2023-03-31T08:30:48;10.24;89.65
49489;SHT31;35382;51.484;11.476;2023-03-31T08:32:33;10.18;88.98
49489;SHT31;35382;51.484;11.476;2023-03-31T08:34:14;10.17;88.94
49489;SHT31;35382;51.484;11.476;2023-03-31T08:35:55;10.20;88.38
49489;SHT31;35382;51.484;11.476;2023-03-31T08:37:37;10.27;89.39
49489;SHT31;35382;51.484;11.476;2023-03-31T08:39:18;10.24;89.04
49489;SHT31;35382;51.484;11.476;2023-03-31T08:41:00;10.36;89.11
49489;SHT31;35382;51.484;11.476;2023-03-31T08:42:44;10.30;89.07
49489;SHT31;35382;51.484;11.476;2023-03-31T08:44:41;10.31;89.33
49489;SHT31;35382;51.484;11.476;2023-03-31T08:46:27;10.45;90.06
49489;SHT31;35382;51.484;11.476;2023-03-31T08:48:23;10.42;89.91
49489;SHT31;35382;51.484;11.476;2023-03-31T08:50:12;10.55;90.15
49489;SHT31;35382;51.484;11.476;2023-03-31T08:51:57;10.74;88.75
49489;SHT31;35382;51.484;11.476;2023-03-31T08:54:01;10.86;89.78
49489;SHT31;35382;51.484;11.476;2023-03-31T08:55:48;10.94;89.38
49489;SHT31;35382;51.484;11.476;2023-03-31T08:59:33;10.65;88.37
49489;SHT31;35382;51.484;11.476;2023-03-31T09:01:40;10.62;88.54
49489;SHT31;35382;51.484;11.476;2023-03-31T09:03:40;10.69;89.48
49489;SHT31;35382;51.484;11.476;2023-03-31T09:05:30;10.68;88.91
49489;SHT31;35382;51.484;11.476;2023-03-31T09:09:01;10.65;88.97
49489;SHT31;35382;51.484;11.476;2023-03-31T09:10:54;10.60;88.54
49489;SHT31;35382;51.484;11.476;2023-03-31T09:13:00;10.64;88.29
49489;SHT31;35382;51.484;11.476;2023-03-31T09:14:58;10.55;87.33
49489;SHT31;35382;51.484;11.476;2023-03-31T09:16:53;10.51;88.15
49489;SHT31;35382;51.484;11.476;2023-03-31T09:18:40;10.52;87.85
49489;SHT31;35382;51.484;11.476;2023-03-31T09:20:31;10.52;89.00
49489;SHT31;35382;51.484;11.476;2023-03-31T09:22:30;10.51;88.95
49489;SHT31;35382;51.484;11.476;2023-03-31T09:24:16;10.42;89.01
49489;SHT31;35382;51.484;11.476;2023-03-31T09:26:02;10.41;87.87
49489;SHT31;35382;51.484;11.476;2023-03-31T09:27:43;10.41;89.41
49489;SHT31;35382;51.484;11.476;2023-03-31T09:31:16;10.37;89.23
49489;SHT31;35382;51.484;11.476;2023-03-31T09:35:23;10.41;89.31
49489;SHT31;35382;51.484;11.476;2023-03-31T09:37:05;10.44;89.15
49489;SHT31;35382;51.484;11.476;2023-03-31T09:38:46;10.45;88.69
49489;SHT31;35382;51.484;11.476;2023-03-31T09:40:27;10.44;89.97
49489;SHT31;35382;51.484;11.476;2023-03-31T09:42:12;10.41;90.20
49489;SHT31;35382;51.484;11.476;2023-03-31T09:43:55;10.40;90.60
49489;SHT31;35382;51.484;11.476;2023-03-31T09:45:40;10.41;90.85
49489;SHT31;35382;51.484;11.476;2023-03-31T09:47:37;10.37;91.35
49489;SHT31;35382;51.484;11.476;2023-03-31T09:49:22;10.14;90.76
49489;SHT31;35382;51.484;11.476;2023-03-31T09:51:06;10.11;90.44
49489;SHT31;35382;51.484;11.476;2023-03-31T09:52:51;10.08;91.02
49489;SHT31;35382;51.484;11.476;2023-03-31T09:58:24;10.11;90.92
49489;SHT31;35382;51.484;11.476;2023-03-31T10:00:14;10.10;91.14
49489;SHT31;35382;51.484;11.476;2023-03-31T10:01:58;10.06;91.63
49489;SHT31;35382;51.484;11.476;2023-03-31T10:03:49;10.04;91.31
49489;SHT31;35382;51.484;11.476;2023-03-31T10:07:20;9.91;92.11
49489;SHT31;35382;51.484;11.476;2023-03-31T10:09:03;9.91;92.44
49489;SHT31;35382;51.484;11.476;2023-03-31T10:10:50;9.80;92.73
49489;SHT31;35382;51.484;11.476;2023-03-31T10:12:32;9.82;92.91
49489;SHT31;35382;51.484;11.476;2023-03-31T10:14:14;9.76;93.38
49489;SHT31;35382;51.484;11.476;2023-03-31T10:16:06;9.69;93.49
49489;SHT31;35382;51.484;11.476;2023-03-31T10:17:52;9.70;93.76
49489;SHT31;35382;51.484;11.476;2023-03-31T10:19:35;9.62;94.05
49489;SHT31;35382;51.484;11.476;2023-03-31T10:21:26;9.57;93.77
49489;SHT31;35382;51.484;11.476;2023-03-31T10:23:17;9.46;94.36
49489;SHT31;35382;51.484;11.476;2023-03-31T10:25:14;9.43;94.67
49489;SHT31;35382;51.484;11.476;2023-03-31T10:26:56;9.38;94.61
49489;SHT31;35382;51.484;11.476;2023-03-31T10:28:37;9.38;95.12
49489;SHT31;35382;51.484;11.476;2023-03-31T10:30:32;9.35;95.37
49489;SHT31;35382;51.484;11.476;2023-03-31T10:32:25;9.32;95.24
49489;SHT31;35382;51.484;11.476;2023-03-31T10:34:12;9.30;95.64
49489;SHT31;35382;51.484;11.476;2023-03-31T10:35:57;9.29;95.81
49489;SHT31;35382;51.484;11.476;2023-03-31T10:37:38;9.30;95.63
49489;SHT31;35382;51.484;11.476;2023-03-31T10:39:27;9.33;95.87
49489;SHT31;35382;51.484;11.476;2023-03-31T10:41:08;9.35;95.71
49489;SHT31;35382;51.484;11.476;2023-03-31T10:42:59;9.40;95.84
49489;SHT31;35382;51.484;11.476;2023-03-31T10:44:41;9.46;95.64
49489;SHT31;35382;51.484;11.476;2023-03-31T10:46:41;9.53;95.68
49489;SHT31;35382;51.484;11.476;2023-03-31T10:48:38;9.70;95.80
49489;SHT31;35382;51.484;11.476;2023-03-31T10:50:29;9.70;95.35
49489;SHT31;35382;51.484;11.476;2023-03-31T10:52:20;9.79;95.23
49489;SHT31;35382;51.484;11.476;2023-03-31T10:54:01;9.77;94.43
49489;SHT31;35382;51.484;11.476;2023-03-31T10:57:52;10.00;93.62
49489;SHT31;35382;51.484;11.476;2023-03-31T11:09:21;10.22;92.67
49489;SHT31;35382;51.484;11.476;2023-03-31T11:13:07;10.38;93.42
49489;SHT31;35382;51.484;11.476;2023-03-31T11:15:21;10.28;93.08
49489;SHT31;35382;51.484;11.476;2023-03-31T11:17:25;10.40;93.27
49489;SHT31;35382;51.484;11.476;2023-03-31T11:21:35;10.27;92.90
49489;SHT31;35382;51.484;11.476;2023-03-31T11:25:16;10.21;93.14
49489;SHT31;35382;51.484;11.476;2023-03-31T11:29:03;10.16;92.96
49489;SHT31;35382;51.484;11.476;2023-03-31T11:31:13;10.22;93.34
49489;SHT31;35382;51.484;11.476;2023-03-31T11:33:18;10.18;92.01
49489;SHT31;35382;51.484;11.476;2023-03-31T11:37:20;10.13;92.62
49489;SHT31;35382;51.484;11.476;2023-03-31T11:41:32;10.11;93.26
49489;SHT31;35382;51.484;11.476;2023-03-31T11:43:28;10.20;93.21
49489;SHT31;35382;51.484;11.476;2023-03-31T11:47:01;10.06;93.29
49489;SHT31;35382;51.484;11.476;2023-03-31T11:48:58;10.03;92.48
49489;SHT31;35382;51.484;11.476;2023-03-31T11:50:41;9.98;92.58
49489;SHT31;35382;51.484;11.476;2023-03-31T11:52:30;9.97;92.36
49489;SHT31;35382;51.484;11.476;2023-03-31T11:54:20;9.96;92.69
49489;SHT31;35382;51.484;11.476;2023-03-31T11:56:04;9.91;93.09
49489;SHT31;35382;51.484;11.476;2023-03-31T11:59:39;9.93;92.91
49489;SHT31;35382;51.484;11.476;2023-03-31T12:03:29;10.03;93.13
49489;SHT31;35382;51.484;11.476;2023-03-31T12:05:16;10.10;93.43
49489;SHT31;35382;51.484;11.476;2023-03-31T12:07:03;10.08;93.31
49489;SHT31;35382;51.484;11.476;2023-03-31T12:11:08;10.48;93.35
49489;SHT31;35382;51.484;11.476;2023-03-31T12:15:12;10.75;92.52
49489;SHT31;35382;51.484;11.476;2023-03-31T12:17:11;10.79;92.48
49489;SHT31;35382;51.484;11.476;2023-03-31T12:19:03;11.02;92.73
49489;SHT31;35382;51.484;11.476;2023-03-31T12:20:52;10.88;91.23
49489;SHT31;35382;51.484;11.476;2023-03-31T12:22:43;11.08;91.28
49489;SHT31;35382;51.484;11.476;2023-03-31T12:24:25;11.18;90.86
49489;SHT31;35382;51.484;11.476;2023-03-31T12:26:22;10.95;90.55
49489;SHT31;35382;51.484;11.476;2023-03-31T12:28:05;11.02;89.97